sensor_id;sensor_type;location;lat;lon;timestamp;P1;durP1;ratioP1;P2;durP2;ratioP2
42246;SDS011;27913;42.722;23.268;2023-08-20T00:00:06;4.43;;;2.38;;
42246;SDS011;27913;42.722;23.268;2023-08-20T00:05:08;4.20;;;2.50;;
42246;SDS011;27913;42.722;23.268;2023-08-20T00:07:34;4.40;;;2.72;;
42246;SDS011;27913;42.722;23.268;2023-08-20T00:10:01;4.00;;;2.47;;
42246;SDS011;27913;42.722;23.268;2023-08-20T00:12:29;5.15;;;2.42;;
42246;SDS011;27913;42.722;23.268;2023-08-20T00:14:59;3.80;;;2.30;;
42246;SDS011;27913;42.722;23.268;2023-08-20T00:17:34;16.58;;;2.35;;
42246;SDS011;27913;42.722;23.268;2023-08-20T00:20:02;5.57;;;2.45;;
42246;SDS011;27913;42.722;23.268;2023-08-20T00:22:38;3.35;;;1.92;;
42246;SDS011;27913;42.722;23.268;2023-08-20T00:25:04;13.43;;;2.50;;
42246;SDS011;27913;42.722;23.268;2023-08-20T00:27:30;4.15;;;2.50;;
42246;SDS011;27913;42.722;23.268;2023-08-20T00:29:56;3.58;;;2.13;;
42246;SDS011;27913;42.722;23.268;2023-08-20T00:32:22;3.63;;;2.35;;
42246;SDS011;27913;42.722;23.268;2023-08-20T00:34:47;5.57;;;2.50;;
42246;SDS011;27913;42.722;23.268;2023-08-20T00:37:13;7.63;;;2.50;;
42246;SDS011;27913;42.722;23.268;2023-08-20T00:39:39;3.35;;;2.03;;
42246;SDS011;27913;42.722;23.268;2023-08-20T00:42:04;4.32;;;2.30;;
42246;SDS011;27913;42.722;23.268;2023-08-20T00:44:30;3.10;;;2.17;;
42246;SDS011;27913;42.722;23.268;2023-08-20T00:46:56;4.30;;;2.58;;
42246;SDS011;27913;42.722;23.268;2023-08-20T00:49:22;4.00;;;2.30;;
42246;SDS011;27913;42.722;23.268;2023-08-20T00:51:48;4.30;;;2.35;;
42246;SDS011;27913;42.722;23.268;2023-08-20T00:54:14;3.47;;;2.05;;
42246;SDS011;27913;42.722;23.268;2023-08-20T00:56:40;3.92;;;2.42;;
42246;SDS011;27913;42.722;23.268;2023-08-20T00:59:05;4.10;;;2.50;;
42246;SDS011;27913;42.722;23.268;2023-08-20T01:01:31;3.75;;;2.50;;
42246;SDS011;27913;42.722;23.268;2023-08-20T01:03:56;6.65;;;3.08;;
42246;SDS011;27913;42.722;23.268;2023-08-20T01:09:42;5.85;;;2.83;;
42246;SDS011;27913;42.722;23.268;2023-08-20T01:12:17;4.45;;;2.20;;
42246;SDS011;27913;42.722;23.268;2023-08-20T01:14:44;3.03;;;2.15;;
42246;SDS011;27913;42.722;23.268;2023-08-20T01:17:10;3.45;;;2.17;;
42246;SDS011;27913;42.722;23.268;2023-08-20T01:19:35;4.55;;;2.38;;
42246;SDS011;27913;42.722;23.268;2023-08-20T01:25:11;5.43;;;2.60;;
42246;SDS011;27913;42.722;23.268;2023-08-20T01:30:50;4.55;;;2.63;;
42246;SDS011;27913;42.722;23.268;2023-08-20T01:33:17;4.43;;;2.85;;
42246;SDS011;27913;42.722;23.268;2023-08-20T01:35:43;5.60;;;2.95;;
42246;SDS011;27913;42.722;23.268;2023-08-20T01:38:09;4.38;;;2.70;;
42246;SDS011;27913;42.722;23.268;2023-08-20T01:40:34;5.82;;;2.85;;
42246;SDS011;27913;42.722;23.268;2023-08-20T01:43:00;3.85;;;2.53;;
42246;SDS011;27913;42.722;23.268;2023-08-20T01:45:25;5.13;;;2.83;;
42246;SDS011;27913;42.722;23.268;2023-08-20T01:47:51;3.85;;;2.50;;
42246;SDS011;27913;42.722;23.268;2023-08-20T01:50:17;4.57;;;2.55;;
42246;SDS011;27913;42.722;23.268;2023-08-20T01:52:43;4.88;;;2.80;;
42246;SDS011;27913;42.722;23.268;2023-08-20T01:55:09;4.97;;;3.03;;
42246;SDS011;27913;42.722;23.268;2023-08-20T01:57:36;5.82;;;2.50;;
42246;SDS011;27913;42.722;23.268;2023-08-20T02:00:01;4.75;;;2.90;;
42246;SDS011;27913;42.722;23.268;2023-08-20T02:02:30;3.85;;;2.50;;
42246;SDS011;27913;42.722;23.268;2023-08-20T02:04:55;3.60;;;2.15;;
42246;SDS011;27913;42.722;23.268;2023-08-20T02:07:21;5.35;;;3.22;;
42246;SDS011;27913;42.722;23.268;2023-08-20T02:09:46;3.70;;;2.40;;
42246;SDS011;27913;42.722;23.268;2023-08-20T02:12:12;4.32;;;2.90;;
42246;SDS011;27913;42.722;23.268;2023-08-20T02:14:37;4.40;;;2.65;;
42246;SDS011;27913;42.722;23.268;2023-08-20T02:17:03;5.30;;;2.97;;
42246;SDS011;27913;42.722;23.268;2023-08-20T02:19:29;4.93;;;3.25;;
42246;SDS011;27913;42.722;23.268;2023-08-20T02:21:54;3.92;;;2.65;;
42246;SDS011;27913;42.722;23.268;2023-08-20T02:24:20;6.07;;;2.90;;
42246;SDS011;27913;42.722;23.268;2023-08-20T02:26:45;5.82;;;3.20;;
42246;SDS011;27913;42.722;23.268;2023-08-20T02:29:11;4.00;;;2.72;;
42246;SDS011;27913;42.722;23.268;2023-08-20T02:31:36;5.20;;;2.83;;
42246;SDS011;27913;42.722;23.268;2023-08-20T02:34:02;5.63;;;3.00;;
42246;SDS011;27913;42.722;23.268;2023-08-20T02:36:27;4.03;;;2.95;;
42246;SDS011;27913;42.722;23.268;2023-08-20T02:38:53;3.60;;;2.33;;
42246;SDS011;27913;42.722;23.268;2023-08-20T02:41:19;5.00;;;3.00;;
42246;SDS011;27913;42.722;23.268;2023-08-20T02:43:44;3.65;;;2.40;;
42246;SDS011;27913;42.722;23.268;2023-08-20T02:46:10;6.70;;;2.75;;
42246;SDS011;27913;42.722;23.268;2023-08-20T02:48:36;4.28;;;2.78;;
42246;SDS011;27913;42.722;23.268;2023-08-20T02:51:01;3.30;;;2.35;;
42246;SDS011;27913;42.722;23.268;2023-08-20T02:53:27;12.27;;;3.22;;
42246;SDS011;27913;42.722;23.268;2023-08-20T02:55:53;4.78;;;2.72;;
42246;SDS011;27913;42.722;23.268;2023-08-20T02:58:19;5.68;;;3.15;;
42246;SDS011;27913;42.722;23.268;2023-08-20T03:00:44;4.93;;;2.85;;
42246;SDS011;27913;42.722;23.268;2023-08-20T03:03:10;5.82;;;3.28;;
42246;SDS011;27913;42.722;23.268;2023-08-20T03:05:36;5.00;;;2.58;;
42246;SDS011;27913;42.722;23.268;2023-08-20T03:08:01;4.55;;;2.70;;
42246;SDS011;27913;42.722;23.268;2023-08-20T03:10:29;6.05;;;2.55;;
42246;SDS011;27913;42.722;23.268;2023-08-20T03:12:56;4.03;;;2.38;;
42246;SDS011;27913;42.722;23.268;2023-08-20T03:15:21;8.82;;;3.10;;
42246;SDS011;27913;42.722;23.268;2023-08-20T03:17:47;5.25;;;3.17;;
42246;SDS011;27913;42.722;23.268;2023-08-20T03:20:12;5.22;;;2.97;;
42246;SDS011;27913;42.722;23.268;2023-08-20T03:22:38;4.57;;;2.67;;
42246;SDS011;27913;42.722;23.268;2023-08-20T03:25:04;4.95;;;2.85;;
42246;SDS011;27913;42.722;23.268;2023-08-20T03:27:30;6.50;;;2.60;;
42246;SDS011;27913;42.722;23.268;2023-08-20T03:29:56;3.92;;;2.53;;
42246;SDS011;27913;42.722;23.268;2023-08-20T03:32:22;3.33;;;2.30;;
42246;SDS011;27913;42.722;23.268;2023-08-20T03:34:47;5.97;;;3.03;;
42246;SDS011;27913;42.722;23.268;2023-08-20T03:37:13;3.85;;;2.42;;
42246;SDS011;27913;42.722;23.268;2023-08-20T03:39:38;3.55;;;2.53;;
42246;SDS011;27913;42.722;23.268;2023-08-20T03:42:04;3.83;;;2.33;;
42246;SDS011;27913;42.722;23.268;2023-08-20T03:44:30;3.65;;;2.28;;
42246;SDS011;27913;42.722;23.268;2023-08-20T03:46:56;5.15;;;2.50;;
42246;SDS011;27913;42.722;23.268;2023-08-20T03:49:21;4.25;;;2.50;;
42246;SDS011;27913;42.722;23.268;2023-08-20T03:51:47;7.30;;;3.15;;
42246;SDS011;27913;42.722;23.268;2023-08-20T03:54:13;4.07;;;2.42;;
42246;SDS011;27913;42.722;23.268;2023-08-20T03:56:38;4.45;;;2.15;;
42246;SDS011;27913;42.722;23.268;2023-08-20T03:59:04;3.58;;;2.38;;
42246;SDS011;27913;42.722;23.268;2023-08-20T04:01:29;6.20;;;2.83;;
42246;SDS011;27913;42.722;23.268;2023-08-20T04:03:55;3.67;;;2.40;;
42246;SDS011;27913;42.722;23.268;2023-08-20T04:06:21;5.05;;;2.50;;
42246;SDS011;27913;42.722;23.268;2023-08-20T04:08:46;5.10;;;2.45;;
42246;SDS011;27913;42.722;23.268;2023-08-20T04:11:12;4.60;;;3.10;;
42246;SDS011;27913;42.722;23.268;2023-08-20T04:13:37;6.97;;;2.78;;
42246;SDS011;27913;42.722;23.268;2023-08-20T04:16:04;14.50;;;3.83;;
42246;SDS011;27913;42.722;23.268;2023-08-20T04:18:30;3.03;;;2.08;;
42246;SDS011;27913;42.722;23.268;2023-08-20T04:20:55;4.38;;;2.63;;
42246;SDS011;27913;42.722;23.268;2023-08-20T04:23:22;3.90;;;2.50;;
42246;SDS011;27913;42.722;23.268;2023-08-20T04:25:48;3.22;;;2.25;;
42246;SDS011;27913;42.722;23.268;2023-08-20T04:28:13;4.70;;;2.88;;
42246;SDS011;27913;42.722;23.268;2023-08-20T04:30:39;4.93;;;2.97;;
42246;SDS011;27913;42.722;23.268;2023-08-20T04:33:04;5.30;;;2.70;;
42246;SDS011;27913;42.722;23.268;2023-08-20T04:35:30;9.25;;;2.88;;
42246;SDS011;27913;42.722;23.268;2023-08-20T04:37:56;6.22;;;3.42;;
42246;SDS011;27913;42.722;23.268;2023-08-20T04:40:21;4.80;;;3.08;;
42246;SDS011;27913;42.722;23.268;2023-08-20T04:42:47;5.13;;;2.83;;
42246;SDS011;27913;42.722;23.268;2023-08-20T04:45:12;4.85;;;2.83;;
42246;SDS011;27913;42.722;23.268;2023-08-20T04:47:38;4.53;;;2.38;;
42246;SDS011;27913;42.722;23.268;2023-08-20T04:50:04;6.57;;;2.40;;
42246;SDS011;27913;42.722;23.268;2023-08-20T04:52:32;3.90;;;2.45;;
42246;SDS011;27913;42.722;23.268;2023-08-20T04:54:58;3.38;;;2.08;;
42246;SDS011;27913;42.722;23.268;2023-08-20T04:57:24;3.72;;;2.00;;
42246;SDS011;27913;42.722;23.268;2023-08-20T04:59:50;2.65;;;1.88;;
42246;SDS011;27913;42.722;23.268;2023-08-20T05:02:15;6.10;;;2.67;;
42246;SDS011;27913;42.722;23.268;2023-08-20T05:04:41;4.32;;;2.38;;
42246;SDS011;27913;42.722;23.268;2023-08-20T05:07:06;4.28;;;1.90;;
42246;SDS011;27913;42.722;23.268;2023-08-20T05:09:32;4.05;;;2.38;;
42246;SDS011;27913;42.722;23.268;2023-08-20T05:11:58;4.93;;;2.72;;
42246;SDS011;27913;42.722;23.268;2023-08-20T05:14:24;3.80;;;2.47;;
42246;SDS011;27913;42.722;23.268;2023-08-20T05:16:49;5.40;;;1.80;;
42246;SDS011;27913;42.722;23.268;2023-08-20T05:19:14;3.67;;;2.33;;
42246;SDS011;27913;42.722;23.268;2023-08-20T05:21:40;2.97;;;1.95;;
42246;SDS011;27913;42.722;23.268;2023-08-20T05:24:05;5.50;;;2.97;;
42246;SDS011;27913;42.722;23.268;2023-08-20T05:26:31;5.15;;;2.63;;
42246;SDS011;27913;42.722;23.268;2023-08-20T05:28:57;2.00;;;1.52;;
42246;SDS011;27913;42.722;23.268;2023-08-20T05:31:22;3.92;;;2.63;;
42246;SDS011;27913;42.722;23.268;2023-08-20T05:33:47;4.30;;;2.03;;
42246;SDS011;27913;42.722;23.268;2023-08-20T05:36:13;4.93;;;2.35;;
42246;SDS011;27913;42.722;23.268;2023-08-20T05:38:39;4.47;;;2.33;;
42246;SDS011;27913;42.722;23.268;2023-08-20T05:41:07;6.80;;;2.47;;
42246;SDS011;27913;42.722;23.268;2023-08-20T05:43:33;3.85;;;2.33;;
42246;SDS011;27913;42.722;23.268;2023-08-20T05:45:58;8.25;;;2.35;;
42246;SDS011;27913;42.722;23.268;2023-08-20T05:48:23;7.13;;;2.45;;
42246;SDS011;27913;42.722;23.268;2023-08-20T05:50:49;3.88;;;2.15;;
42246;SDS011;27913;42.722;23.268;2023-08-20T05:53:14;5.18;;;2.75;;
42246;SDS011;27913;42.722;23.268;2023-08-20T05:55:40;3.45;;;2.00;;
42246;SDS011;27913;42.722;23.268;2023-08-20T05:58:05;3.50;;;2.10;;
42246;SDS011;27913;42.722;23.268;2023-08-20T06:00:31;4.43;;;2.80;;
42246;SDS011;27913;42.722;23.268;2023-08-20T06:02:56;3.63;;;2.60;;
42246;SDS011;27913;42.722;23.268;2023-08-20T06:05:22;3.72;;;2.28;;
42246;SDS011;27913;42.722;23.268;2023-08-20T06:07:47;7.03;;;2.78;;
42246;SDS011;27913;42.722;23.268;2023-08-20T06:10:12;3.65;;;2.65;;
42246;SDS011;27913;42.722;23.268;2023-08-20T06:12:38;3.83;;;2.38;;
42246;SDS011;27913;42.722;23.268;2023-08-20T06:15:05;4.78;;;2.95;;
42246;SDS011;27913;42.722;23.268;2023-08-20T06:17:31;5.00;;;2.65;;
42246;SDS011;27913;42.722;23.268;2023-08-20T06:19:57;5.40;;;3.22;;
42246;SDS011;27913;42.722;23.268;2023-08-20T06:22:22;4.82;;;2.65;;
42246;SDS011;27913;42.722;23.268;2023-08-20T06:24:48;3.88;;;2.50;;
42246;SDS011;27913;42.722;23.268;2023-08-20T06:27:13;4.38;;;2.65;;
42246;SDS011;27913;42.722;23.268;2023-08-20T06:29:39;5.45;;;2.90;;
42246;SDS011;27913;42.722;23.268;2023-08-20T06:32:04;5.70;;;3.28;;
42246;SDS011;27913;42.722;23.268;2023-08-20T06:34:30;12.80;;;3.47;;
42246;SDS011;27913;42.722;23.268;2023-08-20T06:36:55;6.28;;;3.10;;
42246;SDS011;27913;42.722;23.268;2023-08-20T06:39:21;5.75;;;2.63;;
42246;SDS011;27913;42.722;23.268;2023-08-20T06:41:47;4.00;;;2.60;;
42246;SDS011;27913;42.722;23.268;2023-08-20T06:44:13;5.72;;;3.05;;
42246;SDS011;27913;42.722;23.268;2023-08-20T06:46:38;4.40;;;2.38;;
42246;SDS011;27913;42.722;23.268;2023-08-20T06:49:05;5.72;;;2.67;;
42246;SDS011;27913;42.722;23.268;2023-08-20T06:51:30;4.93;;;2.67;;
42246;SDS011;27913;42.722;23.268;2023-08-20T06:53:56;5.32;;;3.15;;
42246;SDS011;27913;42.722;23.268;2023-08-20T06:56:21;5.45;;;2.65;;
42246;SDS011;27913;42.722;23.268;2023-08-20T06:58:48;4.53;;;2.80;;
42246;SDS011;27913;42.722;23.268;2023-08-20T07:01:14;5.60;;;3.00;;
42246;SDS011;27913;42.722;23.268;2023-08-20T07:03:40;4.85;;;3.17;;
42246;SDS011;27913;42.722;23.268;2023-08-20T07:06:06;4.68;;;2.50;;
42246;SDS011;27913;42.722;23.268;2023-08-20T07:08:34;5.32;;;3.30;;
42246;SDS011;27913;42.722;23.268;2023-08-20T07:11:00;4.40;;;2.97;;
42246;SDS011;27913;42.722;23.268;2023-08-20T07:13:25;4.88;;;3.22;;
42246;SDS011;27913;42.722;23.268;2023-08-20T07:15:51;10.18;;;3.40;;
42246;SDS011;27913;42.722;23.268;2023-08-20T07:18:16;5.45;;;3.20;;
42246;SDS011;27913;42.722;23.268;2023-08-20T07:20:42;4.00;;;2.60;;
42246;SDS011;27913;42.722;23.268;2023-08-20T07:23:08;7.78;;;3.03;;
42246;SDS011;27913;42.722;23.268;2023-08-20T07:25:38;4.63;;;2.75;;
42246;SDS011;27913;42.722;23.268;2023-08-20T07:30:31;7.22;;;2.85;;
42246;SDS011;27913;42.722;23.268;2023-08-20T07:32:56;4.80;;;3.08;;
42246;SDS011;27913;42.722;23.268;2023-08-20T07:35:22;22.48;;;3.15;;
42246;SDS011;27913;42.722;23.268;2023-08-20T07:37:48;4.90;;;2.63;;
42246;SDS011;27913;42.722;23.268;2023-08-20T07:40:13;5.95;;;3.00;;
42246;SDS011;27913;42.722;23.268;2023-08-20T07:42:42;3.90;;;2.60;;
42246;SDS011;27913;42.722;23.268;2023-08-20T07:45:08;22.15;;;2.83;;
42246;SDS011;27913;42.722;23.268;2023-08-20T07:47:35;3.38;;;2.22;;
42246;SDS011;27913;42.722;23.268;2023-08-20T07:50:02;4.80;;;2.78;;
42246;SDS011;27913;42.722;23.268;2023-08-20T07:52:28;4.03;;;2.50;;
42246;SDS011;27913;42.722;23.268;2023-08-20T07:54:53;4.78;;;2.88;;
42246;SDS011;27913;42.722;23.268;2023-08-20T07:57:19;7.88;;;3.22;;
42246;SDS011;27913;42.722;23.268;2023-08-20T07:59:44;3.95;;;2.42;;
42246;SDS011;27913;42.722;23.268;2023-08-20T08:02:10;4.38;;;2.60;;
42246;SDS011;27913;42.722;23.268;2023-08-20T08:04:35;4.85;;;2.72;;
42246;SDS011;27913;42.722;23.268;2023-08-20T08:07:01;6.47;;;3.00;;
42246;SDS011;27913;42.722;23.268;2023-08-20T08:09:27;4.57;;;2.53;;
42246;SDS011;27913;42.722;23.268;2023-08-20T08:11:54;4.53;;;2.30;;
42246;SDS011;27913;42.722;23.268;2023-08-20T08:14:20;4.40;;;2.30;;
42246;SDS011;27913;42.722;23.268;2023-08-20T08:16:46;5.65;;;2.80;;
42246;SDS011;27913;42.722;23.268;2023-08-20T08:19:12;5.80;;;2.97;;
42246;SDS011;27913;42.722;23.268;2023-08-20T08:21:38;5.60;;;2.92;;
42246;SDS011;27913;42.722;23.268;2023-08-20T08:24:04;3.13;;;1.95;;
42246;SDS011;27913;42.722;23.268;2023-08-20T08:26:30;4.93;;;2.33;;
42246;SDS011;27913;42.722;23.268;2023-08-20T08:28:56;3.85;;;2.13;;
42246;SDS011;27913;42.722;23.268;2023-08-20T08:31:21;2.38;;;1.70;;
42246;SDS011;27913;42.722;23.268;2023-08-20T08:33:47;14.90;;;3.25;;
42246;SDS011;27913;42.722;23.268;2023-08-20T08:36:12;7.13;;;2.53;;
42246;SDS011;27913;42.722;23.268;2023-08-20T08:38:40;6.47;;;2.42;;
42246;SDS011;27913;42.722;23.268;2023-08-20T08:41:06;5.00;;;2.28;;
42246;SDS011;27913;42.722;23.268;2023-08-20T08:43:35;2.60;;;1.83;;
42246;SDS011;27913;42.722;23.268;2023-08-20T08:46:02;3.80;;;2.47;;
42246;SDS011;27913;42.722;23.268;2023-08-20T08:48:31;7.40;;;2.72;;
42246;SDS011;27913;42.722;23.268;2023-08-20T08:50:57;3.75;;;2.38;;
42246;SDS011;27913;42.722;23.268;2023-08-20T08:53:23;5.00;;;2.50;;
42246;SDS011;27913;42.722;23.268;2023-08-20T08:55:50;3.95;;;2.50;;
42246;SDS011;27913;42.722;23.268;2023-08-20T08:58:16;3.90;;;2.05;;
42246;SDS011;27913;42.722;23.268;2023-08-20T09:00:41;3.38;;;2.00;;
42246;SDS011;27913;42.722;23.268;2023-08-20T09:03:06;7.63;;;2.65;;
42246;SDS011;27913;42.722;23.268;2023-08-20T09:05:32;3.65;;;2.15;;
42246;SDS011;27913;42.722;23.268;2023-08-20T09:07:58;6.03;;;2.22;;
42246;SDS011;27913;42.722;23.268;2023-08-20T09:10:26;4.88;;;2.75;;
42246;SDS011;27913;42.722;23.268;2023-08-20T09:12:55;3.13;;;2.00;;
42246;SDS011;27913;42.722;23.268;2023-08-20T09:15:33;4.82;;;2.38;;
42246;SDS011;27913;42.722;23.268;2023-08-20T09:18:01;5.60;;;2.63;;
42246;SDS011;27913;42.722;23.268;2023-08-20T09:20:35;4.95;;;1.88;;
42246;SDS011;27913;42.722;23.268;2023-08-20T09:23:04;8.48;;;2.30;;
42246;SDS011;27913;42.722;23.268;2023-08-20T09:25:37;4.13;;;1.52;;
42246;SDS011;27913;42.722;23.268;2023-08-20T09:28:03;3.30;;;2.08;;
42246;SDS011;27913;42.722;23.268;2023-08-20T09:30:29;3.28;;;1.98;;
42246;SDS011;27913;42.722;23.268;2023-08-20T09:33:05;12.82;;;2.35;;
42246;SDS011;27913;42.722;23.268;2023-08-20T09:35:36;3.60;;;2.00;;
42246;SDS011;27913;42.722;23.268;2023-08-20T09:38:05;9.48;;;2.10;;
42246;SDS011;27913;42.722;23.268;2023-08-20T09:40:31;6.28;;;2.00;;
42246;SDS011;27913;42.722;23.268;2023-08-20T09:42:56;2.83;;;1.88;;
42246;SDS011;27913;42.722;23.268;2023-08-20T09:45:25;3.10;;;1.60;;
42246;SDS011;27913;42.722;23.268;2023-08-20T09:47:56;2.60;;;1.63;;
42246;SDS011;27913;42.722;23.268;2023-08-20T09:50:23;2.90;;;1.70;;
42246;SDS011;27913;42.722;23.268;2023-08-20T09:55:27;2.60;;;1.95;;
42246;SDS011;27913;42.722;23.268;2023-08-20T09:57:55;5.03;;;2.05;;
42246;SDS011;27913;42.722;23.268;2023-08-20T10:00:22;3.70;;;2.00;;
42246;SDS011;27913;42.722;23.268;2023-08-20T10:02:47;1.90;;;1.30;;
42246;SDS011;27913;42.722;23.268;2023-08-20T10:05:13;2.30;;;1.35;;
42246;SDS011;27913;42.722;23.268;2023-08-20T10:07:40;2.45;;;1.58;;
42246;SDS011;27913;42.722;23.268;2023-08-20T10:10:08;2.50;;;1.58;;
42246;SDS011;27913;42.722;23.268;2023-08-20T10:12:38;1.92;;;1.45;;
42246;SDS011;27913;42.722;23.268;2023-08-20T10:15:06;3.42;;;1.73;;
42246;SDS011;27913;42.722;23.268;2023-08-20T10:17:33;5.57;;;1.48;;
42246;SDS011;27913;42.722;23.268;2023-08-20T10:20:00;2.28;;;1.30;;
42246;SDS011;27913;42.722;23.268;2023-08-20T10:22:40;3.17;;;1.63;;
42246;SDS011;27913;42.722;23.268;2023-08-20T10:25:10;3.88;;;1.77;;
42246;SDS011;27913;42.722;23.268;2023-08-20T10:27:38;2.10;;;1.50;;
42246;SDS011;27913;42.722;23.268;2023-08-20T10:30:08;2.92;;;1.45;;
42246;SDS011;27913;42.722;23.268;2023-08-20T10:32:44;4.10;;;1.73;;
42246;SDS011;27913;42.722;23.268;2023-08-20T10:35:25;5.60;;;1.63;;
42246;SDS011;27913;42.722;23.268;2023-08-20T10:38:01;1.70;;;1.42;;
42246;SDS011;27913;42.722;23.268;2023-08-20T10:40:46;3.17;;;1.80;;
42246;SDS011;27913;42.722;23.268;2023-08-20T10:48:41;2.83;;;1.50;;
42246;SDS011;27913;42.722;23.268;2023-08-20T10:51:09;2.05;;;1.10;;
42246;SDS011;27913;42.722;23.268;2023-08-20T10:53:36;2.05;;;1.40;;
42246;SDS011;27913;42.722;23.268;2023-08-20T10:56:14;2.38;;;1.33;;
42246;SDS011;27913;42.722;23.268;2023-08-20T10:58:41;1.65;;;1.05;;
42246;SDS011;27913;42.722;23.268;2023-08-20T11:01:18;3.33;;;1.52;;
42246;SDS011;27913;42.722;23.268;2023-08-20T11:03:46;1.80;;;1.30;;
42246;SDS011;27913;42.722;23.268;2023-08-20T11:06:13;2.53;;;1.42;;
42246;SDS011;27913;42.722;23.268;2023-08-20T11:08:39;2.47;;;1.60;;
42246;SDS011;27913;42.722;23.268;2023-08-20T11:11:07;2.63;;;1.60;;
42246;SDS011;27913;42.722;23.268;2023-08-20T11:13:33;2.45;;;1.40;;
42246;SDS011;27913;42.722;23.268;2023-08-20T11:15:59;2.65;;;1.70;;
42246;SDS011;27913;42.722;23.268;2023-08-20T11:18:27;3.17;;;1.42;;
42246;SDS011;27913;42.722;23.268;2023-08-20T11:20:53;4.85;;;1.45;;
42246;SDS011;27913;42.722;23.268;2023-08-20T11:23:20;1.77;;;1.40;;
42246;SDS011;27913;42.722;23.268;2023-08-20T11:25:46;1.77;;;1.42;;
42246;SDS011;27913;42.722;23.268;2023-08-20T11:28:12;2.17;;;1.40;;
42246;SDS011;27913;42.722;23.268;2023-08-20T11:30:38;2.17;;;1.50;;
42246;SDS011;27913;42.722;23.268;2023-08-20T11:33:04;1.92;;;1.45;;
42246;SDS011;27913;42.722;23.268;2023-08-20T11:35:30;2.08;;;1.38;;
42246;SDS011;27913;42.722;23.268;2023-08-20T11:37:57;1.75;;;1.38;;
42246;SDS011;27913;42.722;23.268;2023-08-20T11:40:23;1.77;;;1.17;;
42246;SDS011;27913;42.722;23.268;2023-08-20T11:42:51;2.90;;;1.52;;
42246;SDS011;27913;42.722;23.268;2023-08-20T11:45:17;2.45;;;1.50;;
42246;SDS011;27913;42.722;23.268;2023-08-20T11:47:43;2.63;;;1.70;;
42246;SDS011;27913;42.722;23.268;2023-08-20T11:50:09;2.15;;;1.40;;
42246;SDS011;27913;42.722;23.268;2023-08-20T11:52:35;3.05;;;1.80;;
42246;SDS011;27913;42.722;23.268;2023-08-20T11:55:02;2.30;;;1.52;;
42246;SDS011;27913;42.722;23.268;2023-08-20T11:57:29;2.17;;;1.17;;
42246;SDS011;27913;42.722;23.268;2023-08-20T11:59:55;2.83;;;1.50;;
42246;SDS011;27913;42.722;23.268;2023-08-20T12:02:25;2.93;;;1.60;;
42246;SDS011;27913;42.722;23.268;2023-08-20T12:04:54;3.28;;;1.80;;
42246;SDS011;27913;42.722;23.268;2023-08-20T12:07:21;3.78;;;1.90;;
42246;SDS011;27913;42.722;23.268;2023-08-20T12:09:53;4.20;;;1.92;;
42246;SDS011;27913;42.722;23.268;2023-08-20T12:12:20;7.88;;;2.45;;
42246;SDS011;27913;42.722;23.268;2023-08-20T12:14:46;3.00;;;1.60;;
42246;SDS011;27913;42.722;23.268;2023-08-20T12:17:11;3.03;;;1.52;;
42246;SDS011;27913;42.722;23.268;2023-08-20T12:19:37;2.13;;;1.60;;
42246;SDS011;27913;42.722;23.268;2023-08-20T12:22:02;2.22;;;1.63;;
42246;SDS011;27913;42.722;23.268;2023-08-20T12:24:28;2.53;;;1.85;;
42246;SDS011;27913;42.722;23.268;2023-08-20T12:26:54;9.73;;;2.00;;
42246;SDS011;27913;42.722;23.268;2023-08-20T12:29:20;3.05;;;1.90;;
42246;SDS011;27913;42.722;23.268;2023-08-20T12:31:46;5.88;;;1.92;;
42246;SDS011;27913;42.722;23.268;2023-08-20T12:34:11;3.97;;;1.80;;
42246;SDS011;27913;42.722;23.268;2023-08-20T12:36:37;4.55;;;1.70;;
42246;SDS011;27913;42.722;23.268;2023-08-20T12:39:03;3.58;;;2.00;;
42246;SDS011;27913;42.722;23.268;2023-08-20T12:41:32;3.10;;;1.73;;
42246;SDS011;27913;42.722;23.268;2023-08-20T12:43:58;2.92;;;1.80;;
42246;SDS011;27913;42.722;23.268;2023-08-20T12:46:27;6.07;;;1.85;;
42246;SDS011;27913;42.722;23.268;2023-08-20T12:48:52;2.47;;;1.58;;
42246;SDS011;27913;42.722;23.268;2023-08-20T12:51:18;3.13;;;1.92;;
42246;SDS011;27913;42.722;23.268;2023-08-20T12:53:44;3.47;;;1.65;;
42246;SDS011;27913;42.722;23.268;2023-08-20T12:56:09;3.22;;;1.80;;
42246;SDS011;27913;42.722;23.268;2023-08-20T12:58:38;3.15;;;2.03;;
42246;SDS011;27913;42.722;23.268;2023-08-20T13:01:03;3.53;;;2.35;;
42246;SDS011;27913;42.722;23.268;2023-08-20T13:03:29;2.90;;;1.83;;
42246;SDS011;27913;42.722;23.268;2023-08-20T13:05:55;4.05;;;1.83;;
42246;SDS011;27913;42.722;23.268;2023-08-20T13:08:24;3.25;;;2.03;;
42246;SDS011;27913;42.722;23.268;2023-08-20T13:10:53;3.25;;;2.15;;
42246;SDS011;27913;42.722;23.268;2023-08-20T13:13:21;2.78;;;1.90;;
42246;SDS011;27913;42.722;23.268;2023-08-20T13:15:48;2.78;;;1.70;;
42246;SDS011;27913;42.722;23.268;2023-08-20T13:18:16;2.25;;;1.60;;
42246;SDS011;27913;42.722;23.268;2023-08-20T13:20:41;3.42;;;2.00;;
42246;SDS011;27913;42.722;23.268;2023-08-20T13:23:08;2.85;;;2.00;;
42246;SDS011;27913;42.722;23.268;2023-08-20T13:25:35;3.28;;;2.03;;
42246;SDS011;27913;42.722;23.268;2023-08-20T13:28:00;3.40;;;2.03;;
42246;SDS011;27913;42.722;23.268;2023-08-20T13:30:26;2.80;;;1.98;;
42246;SDS011;27913;42.722;23.268;2023-08-20T13:32:51;3.25;;;1.85;;
42246;SDS011;27913;42.722;23.268;2023-08-20T13:35:17;2.17;;;1.75;;
42246;SDS011;27913;42.722;23.268;2023-08-20T13:37:43;4.35;;;1.60;;
42246;SDS011;27913;42.722;23.268;2023-08-20T13:40:09;2.05;;;1.45;;
42246;SDS011;27913;42.722;23.268;2023-08-20T13:42:35;5.47;;;2.00;;
42246;SDS011;27913;42.722;23.268;2023-08-20T13:45:01;3.05;;;1.80;;
42246;SDS011;27913;42.722;23.268;2023-08-20T13:47:27;2.67;;;1.52;;
42246;SDS011;27913;42.722;23.268;2023-08-20T13:49:52;2.65;;;1.73;;
42246;SDS011;27913;42.722;23.268;2023-08-20T13:52:18;2.47;;;1.98;;
42246;SDS011;27913;42.722;23.268;2023-08-20T13:54:43;4.10;;;2.50;;
42246;SDS011;27913;42.722;23.268;2023-08-20T13:57:12;3.25;;;1.95;;
42246;SDS011;27913;42.722;23.268;2023-08-20T13:59:37;2.78;;;1.65;;
42246;SDS011;27913;42.722;23.268;2023-08-20T14:02:03;3.45;;;1.70;;
42246;SDS011;27913;42.722;23.268;2023-08-20T14:04:29;4.85;;;2.08;;
42246;SDS011;27913;42.722;23.268;2023-08-20T14:06:55;3.00;;;1.70;;
42246;SDS011;27913;42.722;23.268;2023-08-20T14:09:20;5.05;;;2.08;;
42246;SDS011;27913;42.722;23.268;2023-08-20T14:11:46;4.53;;;2.58;;
42246;SDS011;27913;42.722;23.268;2023-08-20T14:14:11;10.27;;;2.90;;
42246;SDS011;27913;42.722;23.268;2023-08-20T14:16:37;2.67;;;1.92;;
42246;SDS011;27913;42.722;23.268;2023-08-20T14:19:03;3.50;;;1.98;;
42246;SDS011;27913;42.722;23.268;2023-08-20T14:21:28;2.85;;;1.75;;
42246;SDS011;27913;42.722;23.268;2023-08-20T14:23:54;7.88;;;2.25;;
42246;SDS011;27913;42.722;23.268;2023-08-20T14:26:19;6.70;;;2.13;;
42246;SDS011;27913;42.722;23.268;2023-08-20T14:28:45;2.03;;;1.63;;
42246;SDS011;27913;42.722;23.268;2023-08-20T14:31:11;3.47;;;2.17;;
42246;SDS011;27913;42.722;23.268;2023-08-20T14:33:36;2.25;;;1.55;;
42246;SDS011;27913;42.722;23.268;2023-08-20T14:36:02;3.03;;;1.75;;
42246;SDS011;27913;42.722;23.268;2023-08-20T14:38:29;3.58;;;1.73;;
42246;SDS011;27913;42.722;23.268;2023-08-20T14:40:59;2.38;;;1.60;;
42246;SDS011;27913;42.722;23.268;2023-08-20T14:43:25;2.10;;;1.70;;
42246;SDS011;27913;42.722;23.268;2023-08-20T14:45:51;3.30;;;1.83;;
42246;SDS011;27913;42.722;23.268;2023-08-20T14:48:16;3.80;;;2.03;;
42246;SDS011;27913;42.722;23.268;2023-08-20T14:50:43;3.60;;;2.10;;